Time;durP1;ratioP1;P1;durP2;ratioP2;P2;SDS_P1;SDS_P2;PMS_P1;PMS_P2;Temp;Humidity;BMP_temperature;BMP_pressure;BME280_temperature;BME280_humidity;BME280_pressure;Samples;Min_cycle;Max_cycle;Signal;HPM_P1;HPM_P2
2024/03/16 00:04:22;;;;;;;7.93;4.10;;;10.50;99.90;;;;;;12580553;28;20062;-86
2024/03/16 00:10:25;;;;;;;6.63;4.50;;;10.40;99.90;;;;;;12561671;28;20138;-82
2024/03/16 00:16:27;;;;;;;5.68;4.35;;;10.40;99.90;;;;;;12564700;28;20083;-85
2024/03/16 00:22:29;;;;;;;6.18;4.53;;;10.50;99.90;;;;;;12565890;28;20057;-87
2024/03/16 00:28:31;;;;;;;8.73;4.70;;;10.50;99.90;;;;;;12570172;28;20071;-85
2024/03/16 00:34:33;;;;;;;7.85;4.90;;;10.50;99.90;;;;;;12545085;28;20520;-87
2024/03/16 00:40:35;;;;;;;10.80;5.50;;;10.40;99.90;;;;;;12573053;28;20044;-87
2024/03/16 00:46:37;;;;;;;9.57;5.78;;;10.20;99.90;;;;;;12573682;28;20056;-82
2024/03/16 00:52:38;;;;;;;6.22;5.00;;;10.10;99.90;;;;;;12592399;28;20064;-83
2024/03/16 00:58:40;;;;;;;7.97;5.50;;;10.10;99.90;;;;;;12572877;28;20088;-85
2024/03/16 01:04:42;;;;;;;10.20;5.50;;;10.00;99.90;;;;;;12567224;28;20044;-86
2024/03/16 01:10:44;;;;;;;9.23;5.75;;;10.10;99.90;;;;;;12567613;28;20123;-85
2024/03/16 01:16:46;;;;;;;9.35;5.10;;;9.90;99.90;;;;;;12571121;28;20075;-86
2024/03/16 01:22:48;;;;;;;7.97;5.38;;;9.90;99.90;;;;;;12569682;28;20127;-85
2024/03/16 01:28:50;;;;;;;9.68;5.05;;;9.90;99.90;;;;;;12578837;28;20053;-85
2024/03/16 01:34:52;;;;;;;9.80;4.90;;;9.80;99.90;;;;;;12562136;28;20420;-84
2024/03/16 01:40:54;;;;;;;9.52;4.28;;;9.80;99.90;;;;;;12566402;28;20489;-86
2024/03/16 01:46:56;;;;;;;10.23;4.43;;;9.80;99.90;;;;;;12549325;28;20075;-87
2024/03/16 01:52:58;;;;;;;10.10;5.07;;;9.80;99.90;;;;;;12571042;28;20082;-85
2024/03/16 01:59:00;;;;;;;13.00;4.40;;;9.80;99.90;;;;;;12562818;28;20468;-85
2024/03/16 02:05:06;;;;;;;6.93;4.05;;;9.80;99.90;;;;;;12568607;28;20047;-85
2024/03/16 02:11:08;;;;;;;10.75;4.22;;;9.80;99.90;;;;;;12581649;28;20495;-86
2024/03/16 02:17:11;;;;;;;8.43;3.75;;;9.80;99.90;;;;;;12593747;28;20047;-86
2024/03/16 02:23:15;;;;;;;7.63;4.50;;;9.90;99.90;;;;;;12576274;28;20049;-85
2024/03/16 02:29:18;;;;;;;11.90;5.00;;;10.00;99.90;;;;;;12590725;28;20139;-87
2024/03/16 02:35:19;;;;;;;12.00;4.32;;;10.00;99.90;;;;;;12579532;28;20055;-86
2024/03/16 02:41:22;;;;;;;7.82;4.20;;;9.90;99.90;;;;;;12581513;28;20095;-85
2024/03/16 02:47:24;;;;;;;7.78;4.45;;;10.00;99.90;;;;;;12586149;28;20527;-85
2024/03/16 02:53:26;;;;;;;5.55;4.28;;;10.10;99.90;;;;;;12579437;28;20075;-87
2024/03/16 02:59:29;;;;;;;8.25;5.05;;;10.10;99.90;;;;;;12566845;28;20091;-86
2024/03/16 03:05:31;;;;;;;9.80;5.80;;;10.00;99.90;;;;;;12574403;28;20048;-85
2024/03/16 03:11:33;;;;;;;9.68;5.75;;;10.10;99.90;;;;;;12589387;28;20052;-86
2024/03/16 03:17:35;;;;;;;12.13;7.35;;;10.10;99.90;;;;;;12598793;28;20044;-85
2024/03/16 03:23:37;;;;;;;12.32;8.32;;;10.10;99.90;;;;;;12612468;28;20048;-83
2024/03/16 03:29:39;;;;;;;17.38;8.55;;;10.10;99.90;;;;;;12603278;28;20048;-83
2024/03/16 03:35:41;;;;;;;11.00;7.97;;;10.00;99.90;;;;;;12591600;28;20044;-84
2024/03/16 03:41:43;;;;;;;14.13;8.05;;;10.10;99.90;;;;;;12588170;28;20052;-84
2024/03/16 03:48:02;;;;;;;17.27;9.57;;;10.00;99.90;;;;;;12606605;28;20550;-83
2024/03/16 03:54:06;;;;;;;15.00;8.55;;;10.10;99.90;;;;;;12564632;28;20083;-83
2024/03/16 04:00:09;;;;;;;15.23;8.95;;;10.10;99.90;;;;;;12579778;28;20052;-83
2024/03/16 04:06:10;;;;;;;14.20;9.57;;;10.10;99.90;;;;;;12580246;28;20048;-83
2024/03/16 04:12:12;;;;;;;14.45;9.85;;;10.10;99.90;;;;;;12568232;28;20131;-83
2024/03/16 04:18:14;;;;;;;12.88;8.77;;;10.10;99.90;;;;;;12582522;28;20057;-85
2024/03/16 04:24:16;;;;;;;12.73;8.85;;;10.10;99.90;;;;;;12567198;28;20056;-87
2024/03/16 04:30:18;;;;;;;17.02;11.00;;;10.10;99.90;;;;;;12570166;28;20508;-83
2024/03/16 04:36:20;;;;;;;15.45;10.27;;;10.10;99.90;;;;;;12587480;28;20387;-83
2024/03/16 04:42:22;;;;;;;14.27;10.50;;;10.00;99.90;;;;;;12582044;28;20052;-86
2024/03/16 04:48:24;;;;;;;15.35;10.38;;;9.90;99.90;;;;;;12574155;28;20056;-86
2024/03/16 04:54:26;;;;;;;13.07;11.07;;;9.80;99.90;;;;;;12595211;28;20428;-86
2024/03/16 05:00:28;;;;;;;11.25;9.57;;;9.70;99.90;;;;;;12568234;28;20053;-86
2024/03/16 05:06:36;;;;;;;15.80;10.10;;;9.60;99.90;;;;;;12578288;28;20045;-87
2024/03/16 05:12:38;;;;;;;14.85;10.38;;;9.60;99.90;;;;;;12580688;28;20509;-84
2024/03/16 05:18:40;;;;;;;17.67;10.63;;;9.60;99.90;;;;;;12577839;28;20076;-83
2024/03/16 05:24:42;;;;;;;15.13;11.18;;;9.60;99.90;;;;;;12604568;28;20055;-83
2024/03/16 05:30:44;;;;;;;21.35;11.95;;;9.70;99.90;;;;;;12591289;28;20052;-82
2024/03/16 05:36:46;;;;;;;13.85;9.98;;;9.70;99.90;;;;;;12594848;28;20504;-82
2024/03/16 05:42:48;;;;;;;18.77;11.00;;;9.70;99.90;;;;;;12575612;28;20063;-87
2024/03/16 05:48:50;;;;;;;16.90;11.25;;;9.70;99.90;;;;;;12569184;28;20412;-88
2024/03/16 05:54:52;;;;;;;14.75;10.80;;;9.80;99.90;;;;;;12570220;28;20571;-87
2024/03/16 06:00:55;;;;;;;18.70;12.00;;;9.70;99.90;;;;;;12564345;28;20072;-86
2024/03/16 06:06:57;;;;;;;13.30;11.57;;;9.80;99.90;;;;;;12574865;28;20087;-88
2024/03/16 06:13:00;;;;;;;12.52;10.75;;;9.80;99.90;;;;;;12571027;28;20053;-86
2024/03/16 06:19:02;;;;;;;16.65;11.73;;;10.00;99.90;;;;;;12549685;28;20044;-88
2024/03/16 06:25:04;;;;;;;13.82;11.57;;;9.90;99.90;;;;;;12566841;28;20122;-88
2024/03/16 06:31:11;;;;;;;14.05;12.25;;;9.90;99.90;;;;;;12564582;28;20041;-84
2024/03/16 06:37:13;;;;;;;16.52;13.18;;;9.90;99.90;;;;;;12555715;28;20063;-84
2024/03/16 06:43:15;;;;;;;16.20;12.43;;;9.90;99.90;;;;;;12573390;28;20053;-84
2024/03/16 06:49:17;;;;;;;8.93;8.07;;;9.90;99.90;;;;;;12562165;28;20056;-82
2024/03/16 06:55:20;;;;;;;4.20;3.80;;;9.60;99.90;;;;;;12578025;28;20052;-83
2024/03/16 07:01:24;;;;;;;4.15;3.30;;;9.10;99.90;;;;;;12562328;28;20063;-82
2024/03/16 07:07:26;;;;;;;5.25;3.13;;;8.90;99.90;;;;;;12547451;28;20052;-81
2024/03/16 07:13:28;;;;;;;3.80;3.42;;;8.80;99.90;;;;;;12564023;28;20053;-81
2024/03/16 07:19:30;;;;;;;4.45;4.05;;;8.80;99.90;;;;;;12565126;28;20056;-80
2024/03/16 07:25:32;;;;;;;3.97;3.58;;;8.80;99.90;;;;;;12567721;28;20210;-80
2024/03/16 07:31:34;;;;;;;4.60;3.80;;;8.80;99.90;;;;;;12543786;28;20049;-80
2024/03/16 07:37:36;;;;;;;4.43;3.70;;;8.80;99.90;;;;;;12543000;28;20060;-80
2024/03/16 07:43:38;;;;;;;4.28;3.22;;;8.70;99.90;;;;;;12576976;28;20049;-83
2024/03/16 07:49:39;;;;;;;3.47;3.10;;;8.60;99.90;;;;;;12560462;28;20060;-83
2024/03/16 07:55:41;;;;;;;3.33;3.03;;;8.60;99.90;;;;;;12549549;28;20052;-83
2024/03/16 08:01:44;;;;;;;3.22;2.92;;;8.60;99.90;;;;;;12596587;28;20087;-84
2024/03/16 08:07:47;;;;;;;2.35;1.80;;;8.60;99.90;;;;;;12574082;28;20051;-85
2024/03/16 08:13:49;;;;;;;3.03;1.80;;;8.50;99.90;;;;;;12586289;28;20141;-79
2024/03/16 08:19:51;;;;;;;2.83;1.65;;;8.40;99.90;;;;;;12601154;28;20049;-79
2024/03/16 08:25:53;;;;;;;4.78;1.90;;;8.40;99.90;;;;;;12565351;28;20067;-85
2024/03/16 08:31:55;;;;;;;2.13;1.70;;;8.30;99.90;;;;;;12538274;28;20455;-82
2024/03/16 08:37:58;;;;;;;2.35;1.50;;;8.30;99.90;;;;;;12559223;28;20036;-86
2024/03/16 08:44:00;;;;;;;4.43;1.70;;;8.10;99.90;;;;;;12555575;28;20055;-88
2024/03/16 08:50:04;;;;;;;3.38;1.83;;;8.00;99.90;;;;;;12572126;28;20080;-84
2024/03/16 08:56:07;;;;;;;;;;;7.90;99.90;;;;;;12571202;28;20056;-82
2024/03/16 09:02:09;;;;;;;2.90;2.10;;;8.00;99.90;;;;;;12569327;28;19966;-83
2024/03/16 09:08:10;;;;;;;6.45;2.60;;;8.10;99.90;;;;;;12566931;28;20093;-82
2024/03/16 09:14:12;;;;;;;2.70;1.58;;;8.20;99.90;;;;;;12565126;28;20096;-82
2024/03/16 09:20:14;;;;;;;4.05;1.48;;;7.70;99.90;;;;;;12573184;28;20104;-82
2024/03/16 09:26:16;;;;;;;4.65;1.48;;;7.70;99.90;;;;;;12555125;28;20094;-83
2024/03/16 09:32:18;;;;;;;7.15;3.17;;;7.90;99.90;;;;;;12549504;28;20116;-79
2024/03/16 09:38:19;;;;;;;8.20;1.95;;;8.20;99.90;;;;;;12556272;28;20094;-79
2024/03/16 09:44:22;;;;;;;4.78;2.20;;;8.30;99.90;;;;;;12552698;28;20052;-81
2024/03/16 09:50:25;;;;;;;7.93;2.38;;;8.20;99.90;;;;;;12585300;28;20063;-86
2024/03/16 09:56:26;;;;;;;6.15;2.33;;;8.50;99.90;;;;;;12563606;28;20053;-82
2024/03/16 10:02:27;;;;;;;5.75;2.33;;;8.30;99.90;;;;;;12555317;28;20135;-84
2024/03/16 10:08:28;;;;;;;6.80;1.83;;;8.20;99.90;;;;;;12552128;28;20060;-84
2024/03/16 10:14:29;;;;;;;6.28;1.30;;;8.20;99.90;;;;;;12565126;28;20048;-83
2024/03/16 10:20:30;;;;;;;4.00;1.80;;;8.40;99.90;;;;;;12552443;28;20056;-83
2024/03/16 10:26:31;;;;;;;6.72;1.45;;;8.40;99.90;;;;;;12543731;28;20052;-83
2024/03/16 10:32:33;;;;;;;4.47;2.03;;;8.40;99.90;;;;;;12544547;28;20048;-83
2024/03/16 10:38:34;;;;;;;3.92;1.52;;;8.40;99.90;;;;;;12549790;28;20059;-82
2024/03/16 10:44:36;;;;;;;6.63;1.65;;;8.40;99.90;;;;;;12565085;28;20057;-83
2024/03/16 10:50:37;;;;;;;7.97;2.28;;;8.40;99.90;;;;;;12590618;28;20064;-85
2024/03/16 10:56:39;;;;;;;3.40;1.60;;;8.40;99.90;;;;;;12581384;28;20401;-83
2024/03/16 11:02:48;;;;;;;5.22;2.72;;;8.60;99.90;;;;;;12560222;28;20067;-85
2024/03/16 11:08:50;;;;;;;6.40;1.80;;;8.80;99.90;;;;;;12557331;28;20052;-87
2024/03/16 11:15:30;;;;;;;3.53;2.40;;;9.00;99.90;;;;;;12560393;28;20052;-82
2024/03/16 11:21:33;;;;;;;4.85;3.65;;;8.90;99.90;;;;;;12571832;28;20400;-82
2024/03/16 11:27:35;;;;;;;4.60;2.57;;;8.70;99.90;;;;;;12553492;28;20061;-83
2024/03/16 11:33:36;;;;;;;4.95;2.80;;;8.70;99.90;;;;;;12553160;28;20040;-82
2024/03/16 11:39:37;;;;;;;2.78;1.60;;;8.70;99.90;;;;;;12558527;28;20052;-83
2024/03/16 11:45:46;;;;;;;3.10;1.50;;;8.80;99.90;;;;;;12573530;28;20052;-83
2024/03/16 11:51:48;;;;;;;4.97;2.47;;;8.70;99.90;;;;;;12556329;28;20053;-83
2024/03/16 11:57:49;;;;;;;5.30;4.90;;;8.50;99.90;;;;;;12570694;28;20479;-82
2024/03/16 12:03:51;;;;;;;4.13;1.98;;;8.50;99.90;;;;;;12565303;28;20527;-82
2024/03/16 12:09:53;;;;;;;4.40;1.30;;;8.80;99.90;;;;;;12555691;28;20060;-82
2024/03/16 12:15:56;;;;;;;2.35;1.48;;;8.70;99.90;;;;;;12560426;28;20052;-84
2024/03/16 12:21:57;;;;;;;3.95;1.63;;;8.60;99.90;;;;;;12571104;28;20496;-86
2024/03/16 12:28:02;;;;;;;3.78;1.40;;;8.60;99.90;;;;;;12550322;28;20523;-84
2024/03/16 12:34:03;;;;;;;3.78;1.60;;;8.80;99.90;;;;;;12554972;28;20126;-86
2024/03/16 12:40:04;;;;;;;8.52;2.55;;;8.80;99.90;;;;;;12555559;28;20102;-85
2024/03/16 12:46:07;;;;;;;4.45;2.08;;;8.90;99.90;;;;;;12552171;28;20044;-86
2024/03/16 12:52:10;;;;;;;3.05;1.70;;;9.00;99.90;;;;;;12553868;28;20102;-85
2024/03/16 12:58:12;;;;;;;5.27;2.10;;;9.00;99.90;;;;;;12553176;28;20053;-86
2024/03/16 13:04:13;;;;;;;2.83;1.50;;;8.90;99.90;;;;;;12554966;28;20056;-85
2024/03/16 13:10:14;;;;;;;3.60;1.63;;;8.80;99.90;;;;;;12550729;28;20492;-84
2024/03/16 13:16:16;;;;;;;3.83;1.70;;;8.90;99.90;;;;;;12557280;28;20106;-84
2024/03/16 13:22:17;;;;;;;5.68;2.00;;;9.00;99.90;;;;;;12548490;28;20045;-84
2024/03/16 13:28:20;;;;;;;3.28;2.25;;;8.90;99.90;;;;;;12590716;28;20048;-83
2024/03/16 13:34:21;;;;;;;2.38;1.77;;;8.50;99.90;;;;;;12594637;28;20056;-89
2024/03/16 13:40:22;;;;;;;8.98;1.90;;;8.20;99.90;;;;;;12542963;28;20047;-88
2024/03/16 13:46:24;;;;;;;3.95;1.60;;;8.70;99.90;;;;;;12557940;28;20518;-89
2024/03/16 13:52:26;;;;;;;4.28;1.30;;;8.90;99.90;;;;;;12520940;28;20061;-89
2024/03/16 13:58:28;;;;;;;4.78;1.90;;;9.20;99.90;;;;;;12536137;28;20048;-89
2024/03/16 14:04:32;;;;;;;5.53;1.90;;;9.30;99.90;;;;;;12544081;28;20432;-90
2024/03/16 14:10:32;;;;;;;16.00;8.27;;;9.30;99.90;;;;;;12541078;28;20052;-88
2024/03/16 14:16:34;;;;;;;3.38;1.40;;;9.30;99.90;;;;;;12556037;28;20053;-89
2024/03/16 14:22:35;;;;;;;7.50;2.22;;;9.20;99.90;;;;;;12564534;28;20061;-86
2024/03/16 14:28:36;;;;;;;5.57;2.38;;;9.30;99.90;;;;;;12560852;28;20052;-87
2024/03/16 14:34:39;;;;;;;57.15;23.30;;;9.40;99.90;;;;;;12558995;28;20106;-87
2024/03/16 14:40:40;;;;;;;5.05;3.00;;;9.50;99.90;;;;;;12574404;28;20606;-82
2024/03/16 14:46:41;;;;;;;4.28;2.00;;;9.40;99.90;;;;;;12572972;28;20114;-89
2024/03/16 14:52:42;;;;;;;5.60;2.15;;;9.20;99.90;;;;;;12579184;28;20511;-85
2024/03/16 14:58:43;;;;;;;2.88;1.92;;;9.10;99.90;;;;;;12564266;28;20060;-86
2024/03/16 15:04:45;;;;;;;4.30;1.88;;;9.30;99.90;;;;;;12544909;28;20227;-86
2024/03/16 15:10:45;;;;;;;4.43;1.58;;;9.10;99.90;;;;;;12545374;28;20060;-85
2024/03/16 15:16:46;;;;;;;8.52;4.00;;;9.20;99.90;;;;;;12567586;28;20055;-87
2024/03/16 15:22:47;;;;;;;3.63;1.73;;;9.30;99.90;;;;;;12553744;28;20064;-86
2024/03/16 15:28:52;;;;;;;6.80;2.95;;;9.20;99.90;;;;;;12573289;28;20048;-85
2024/03/16 15:34:53;;;;;;;4.28;1.58;;;9.40;99.90;;;;;;12547069;28;20056;-86
2024/03/16 15:40:55;;;;;;;9.40;2.95;;;9.60;99.90;;;;;;12555283;28;20055;-85
2024/03/16 15:46:56;;;;;;;5.50;2.45;;;9.70;99.90;;;;;;12563772;28;20496;-83
2024/03/16 15:52:57;;;;;;;3.28;1.80;;;9.50;99.90;;;;;;12583156;28;20083;-84
2024/03/16 15:58:59;;;;;;;5.47;1.88;;;9.30;99.90;;;;;;12564158;28;20052;-86
2024/03/16 16:05:00;;;;;;;3.90;1.85;;;9.20;99.90;;;;;;12567015;28;20098;-87
2024/03/16 16:11:01;;;;;;;4.40;1.88;;;9.20;99.90;;;;;;12559541;28;20078;-86
2024/03/16 16:17:02;;;;;;;7.30;1.45;;;9.00;99.90;;;;;;12557284;28;20394;-85
2024/03/16 16:23:05;;;;;;;3.65;1.45;;;8.90;99.90;;;;;;12553339;28;20113;-85
2024/03/16 16:29:07;;;;;;;3.63;1.37;;;8.90;99.90;;;;;;12555522;28;20075;-86
2024/03/16 16:35:09;;;;;;;2.83;1.45;;;8.90;99.90;;;;;;12571398;28;20055;-86
2024/03/16 16:41:11;;;;;;;3.83;1.45;;;8.90;99.90;;;;;;12558807;28;20067;-85
2024/03/16 16:47:12;;;;;;;5.38;2.10;;;8.90;99.90;;;;;;12553822;28;20053;-86
2024/03/16 16:53:13;;;;;;;5.15;1.55;;;8.80;99.90;;;;;;12556726;28;20036;-86
2024/03/16 16:59:14;;;;;;;3.15;1.60;;;8.80;99.90;;;;;;12566169;28;20082;-81
2024/03/16 17:05:15;;;;;;;4.80;1.20;;;8.80;99.90;;;;;;12568017;28;20111;-81
2024/03/16 17:11:24;;;;;;;4.22;1.60;;;8.70;99.90;;;;;;12568927;28;20049;-83
2024/03/16 17:17:24;;;;;;;3.80;1.55;;;8.70;99.90;;;;;;12584068;28;20122;-81
2024/03/16 17:23:25;;;;;;;3.38;1.40;;;8.60;99.90;;;;;;12584796;28;20074;-81
2024/03/16 17:29:26;;;;;;;3.67;1.50;;;8.50;99.90;;;;;;12598843;28;20074;-81
2024/03/16 17:35:27;;;;;;;3.40;1.80;;;8.60;99.90;;;;;;12614562;28;20071;-81
2024/03/16 17:41:28;;;;;;;3.28;1.45;;;8.50;99.90;;;;;;12606173;28;20066;-80
2024/03/16 17:47:29;;;;;;;5.22;1.60;;;8.40;99.90;;;;;;12583290;28;20048;-81
2024/03/16 17:53:30;;;;;;;3.38;1.10;;;8.30;99.90;;;;;;12581480;28;20178;-82
2024/03/16 17:59:31;;;;;;;7.20;1.50;;;8.20;99.90;;;;;;12565228;28;20057;-81
2024/03/16 18:05:32;;;;;;;3.90;1.40;;;8.10;99.90;;;;;;12564078;28;20110;-80
2024/03/16 18:11:33;;;;;;;4.07;1.40;;;7.90;99.90;;;;;;12569733;28;20062;-83
2024/03/16 18:17:34;;;;;;;3.47;1.30;;;8.00;99.90;;;;;;12611442;28;20045;-83
2024/03/16 18:23:35;;;;;;;3.92;1.85;;;7.90;99.90;;;;;;12568533;28;20099;-83
2024/03/16 18:29:37;;;;;;;6.85;1.60;;;7.90;99.90;;;;;;12571593;28;20489;-85
2024/03/16 18:35:40;;;;;;;3.80;1.48;;;7.90;99.90;;;;;;12547822;28;20071;-84
2024/03/16 18:41:41;;;;;;;6.88;1.95;;;7.80;99.90;;;;;;12549072;28;20107;-84
2024/03/16 18:47:42;;;;;;;5.50;1.60;;;7.70;99.90;;;;;;12548401;28;20119;-82
2024/03/16 18:53:43;;;;;;;3.47;1.58;;;7.70;99.90;;;;;;12568495;28;20057;-85
2024/03/16 18:59:45;;;;;;;4.40;1.88;;;7.60;99.90;;;;;;12559545;28;20508;-84
2024/03/16 19:05:46;;;;;;;5.30;1.80;;;7.40;99.90;;;;;;12579551;28;20060;-84
2024/03/16 19:11:47;;;;;;;5.47;1.92;;;7.40;99.90;;;;;;12571525;28;20055;-85
2024/03/16 19:17:48;;;;;;;4.35;1.55;;;7.40;99.90;;;;;;12564120;28;20039;-83
2024/03/16 19:23:49;;;;;;;4.53;1.70;;;7.30;99.90;;;;;;12557348;28;20075;-84
2024/03/16 19:29:50;;;;;;;2.70;1.42;;;7.40;99.90;;;;;;12564778;28;20095;-80
2024/03/16 19:35:51;;;;;;;8.52;1.85;;;7.40;99.90;;;;;;12578912;28;20446;-80
2024/03/16 19:41:52;;;;;;;3.53;1.90;;;7.40;99.90;;;;;;12555614;28;20110;-83
2024/03/16 19:47:53;;;;;;;6.47;2.17;;;7.30;99.90;;;;;;12562709;28;20048;-83
2024/03/16 19:53:54;;;;;;;6.68;2.03;;;7.20;99.90;;;;;;12556919;28;20501;-83
2024/03/16 19:59:55;;;;;;;2.92;1.80;;;7.20;99.90;;;;;;12572756;28;20056;-83
2024/03/16 20:05:56;;;;;;;4.43;1.92;;;7.00;99.90;;;;;;12557354;28;20416;-83
2024/03/16 20:11:58;;;;;;;4.60;1.95;;;6.80;99.90;;;;;;12560641;28;20056;-83
2024/03/16 20:18:00;;;;;;;3.33;1.75;;;6.80;99.90;;;;;;12558110;28;20048;-84
2024/03/16 20:24:01;;;;;;;6.40;1.92;;;6.60;99.90;;;;;;12552436;28;20048;-83
2024/03/16 20:30:07;;;;;;;2.80;1.70;;;6.50;99.90;;;;;;12557742;28;20052;-83
2024/03/16 20:36:08;;;;;;;4.18;1.85;;;6.50;99.90;;;;;;12561169;28;20052;-83
2024/03/16 20:42:09;;;;;;;2.90;1.52;;;6.60;99.90;;;;;;12556296;28;20505;-81
2024/03/16 20:48:09;;;;;;;6.55;2.15;;;6.50;99.90;;;;;;12571697;28;20051;-84
2024/03/16 20:54:10;;;;;;;4.85;2.20;;;6.30;99.90;;;;;;12550147;28;20053;-83
2024/03/16 21:00:13;;;;;;;3.13;1.80;;;6.10;99.90;;;;;;12538755;28;20055;-83
2024/03/16 21:06:14;;;;;;;4.20;2.17;;;5.90;99.90;;;;;;12536327;28;20049;-83
2024/03/16 21:12:15;;;;;;;7.95;2.10;;;5.80;99.90;;;;;;12559406;28;20053;-83
2024/03/16 21:18:16;;;;;;;4.82;2.30;;;5.90;99.90;;;;;;12553106;28;20488;-84
2024/03/16 21:24:19;;;;;;;4.97;2.38;;;5.90;99.90;;;;;;12550413;28;20057;-84
2024/03/16 21:30:20;;;;;;;9.70;2.47;;;5.90;99.90;;;;;;12572143;28;20507;-84
2024/03/16 21:36:22;;;;;;;6.97;2.58;;;5.60;99.90;;;;;;12555632;28;20052;-84
2024/03/16 21:42:23;;;;;;;9.52;2.55;;;5.50;99.90;;;;;;12567414;28;20056;-83
2024/03/16 21:48:24;;;;;;;7.07;2.72;;;5.40;99.90;;;;;;12550550;28;20098;-83
2024/03/16 21:54:25;;;;;;;9.32;2.95;;;5.40;99.90;;;;;;12554317;28;20064;-83
2024/03/16 22:00:26;;;;;;;7.90;2.78;;;5.40;99.90;;;;;;12554808;28;20126;-80
2024/03/16 22:06:27;;;;;;;10.27;3.47;;;5.30;99.90;;;;;;12573885;28;20056;-80
2024/03/16 22:12:28;;;;;;;8.45;2.65;;;5.30;99.90;;;;;;12547846;28;20051;-80
2024/03/16 22:18:29;;;;;;;5.55;2.40;;;5.30;99.90;;;;;;12560663;28;20887;-82
2024/03/16 22:24:30;;;;;;;4.05;2.38;;;5.30;99.90;;;;;;12579943;28;20063;-80
2024/03/16 22:30:31;;;;;;;12.82;5.57;;;5.30;99.90;;;;;;12559234;28;20460;-80
2024/03/16 22:36:32;;;;;;;9.23;2.58;;;5.20;99.90;;;;;;12560872;28;20076;-80
2024/03/16 22:42:33;;;;;;;5.65;2.50;;;5.10;99.90;;;;;;12581042;28;20064;-83
2024/03/16 22:48:34;;;;;;;3.92;2.50;;;5.00;99.90;;;;;;12566627;28;20059;-79
2024/03/16 22:54:34;;;;;;;4.53;2.20;;;5.00;99.90;;;;;;12585069;28;20489;-80
2024/03/16 23:00:37;;;;;;;9.65;2.70;;;5.00;99.90;;;;;;12582068;28;20064;-85
2024/03/16 23:06:38;;;;;;;4.65;2.45;;;4.90;99.90;;;;;;12558551;28;20052;-84
2024/03/16 23:12:39;;;;;;;6.65;2.38;;;5.00;99.90;;;;;;12569590;28;20044;-83
2024/03/16 23:18:42;;;;;;;5.75;2.35;;;4.90;99.90;;;;;;12560262;28;20049;-84
2024/03/16 23:24:43;;;;;;;5.80;2.50;;;4.90;99.90;;;;;;12553024;28;20060;-83
2024/03/16 23:30:44;;;;;;;5.40;2.45;;;4.90;99.90;;;;;;12557185;28;20056;-83
2024/03/16 23:36:44;;;;;;;6.03;2.20;;;4.80;99.90;;;;;;12548494;28;20123;-83
2024/03/16 23:42:49;;;;;;;4.32;2.15;;;4.80;99.90;;;;;;12560146;28;20052;-83
2024/03/16 23:48:50;;;;;;;9.63;2.70;;;4.80;99.90;;;;;;12566176;28;20052;-82
2024/03/16 23:54:51;;;;;;;5.93;2.58;;;4.70;99.90;;;;;;12556540;28;20044;-82
